Time;durP1;ratioP1;P1;durP2;ratioP2;P2;SDS_P1;SDS_P2;PMS_P1;PMS_P2;Temp;Humidity;BMP_temperature;BMP_pressure;BME280_temperature;BME280_humidity;BME280_pressure;Samples;Min_cycle;Max_cycle;Signal;HPM_P1;HPM_P2
2022/01/17 00:00:11;;;;;;;194.38;21.48;;;;;;;;;;5080129;28;20051;-75
2022/01/17 00:02:38;;;;;;;248.73;24.77;;;;;;;;;;5085841;28;20509;-75
2022/01/17 00:05:06;;;;;;;298.42;24.65;;;;;;;;;;5087092;28;20119;-75
2022/01/17 00:07:32;;;;;;;253.90;25.63;;;;;;;;;;5081096;28;20040;-75
2022/01/17 00:09:58;;;;;;;249.77;22.92;;;;;;;;;;5077921;28;20103;-75
2022/01/17 00:12:23;;;;;;;213.88;22.63;;;;;;;;;;5080824;28;20054;-74
2022/01/17 00:14:49;;;;;;;289.55;27.65;;;;;;;;;;5076126;28;20079;-75
2022/01/17 00:19:43;;;;;;;219.90;22.45;;;;;;;;;;5081694;28;20044;-75
2022/01/17 00:22:11;;;;;;;262.77;24.00;;;;;;;;;;5076608;28;20048;-76
2022/01/17 00:24:37;;;;;;;242.77;24.13;;;;;;;;;;5087156;28;20036;-75
2022/01/17 00:27:03;;;;;;;168.82;20.17;;;;;;;;;;5088276;28;20047;-75
2022/01/17 00:29:28;;;;;;;165.20;19.38;;;;;;;;;;5084941;28;20038;-76
2022/01/17 00:31:54;;;;;;;221.93;22.30;;;;;;;;;;5082735;28;20130;-75
2022/01/17 00:34:19;;;;;;;175.90;21.13;;;;;;;;;;5076346;28;20055;-75
2022/01/17 00:36:45;;;;;;;134.93;19.67;;;;;;;;;;5075057;28;20131;-75
2022/01/17 00:39:10;;;;;;;164.13;19.60;;;;;;;;;;5079461;28;20044;-75
2022/01/17 00:41:36;;;;;;;153.27;19.20;;;;;;;;;;5079467;28;20540;-75
2022/01/17 00:44:01;;;;;;;143.23;21.02;;;;;;;;;;5080854;28;20036;-75
2022/01/17 00:46:27;;;;;;;154.07;21.08;;;;;;;;;;5087392;28;20036;-75
2022/01/17 00:48:52;;;;;;;137.32;19.75;;;;;;;;;;5079658;28;20035;-75
2022/01/17 00:51:19;;;;;;;135.10;18.77;;;;;;;;;;5087463;28;20055;-76
2022/01/17 00:53:44;;;;;;;142.63;20.98;;;;;;;;;;5086350;28;20055;-75
2022/01/17 00:56:09;;;;;;;119.75;19.80;;;;;;;;;;5086209;28;20047;-75
2022/01/17 00:58:35;;;;;;;138.45;21.10;;;;;;;;;;5086783;28;20036;-75
2022/01/17 01:01:00;;;;;;;140.57;20.73;;;;;;;;;;5079253;28;20043;-75
2022/01/17 01:03:26;;;;;;;156.70;20.13;;;;;;;;;;5078911;28;20447;-75
2022/01/17 01:05:51;;;;;;;134.50;19.83;;;;;;;;;;5078879;28;20036;-75
2022/01/17 01:08:17;;;;;;;105.90;19.45;;;;;;;;;;5072752;28;20046;-75
2022/01/17 01:10:43;;;;;;;145.30;20.05;;;;;;;;;;5080619;28;20640;-75
2022/01/17 01:13:09;;;;;;;160.20;22.00;;;;;;;;;;5081351;28;20142;-75
2022/01/17 01:18:37;;;;;;;147.98;19.63;;;;;;;;;;5048131;28;20047;-75
2022/01/17 01:29:01;;;;;;;115.55;19.40;;;;;;;;;;5084138;28;20080;-75
2022/01/17 01:32:03;;;;;;;120.65;18.35;;;;;;;;;;5085222;28;20028;-75
2022/01/17 01:34:21;;;;;;;113.40;17.13;;;;;;;;;;5059888;28;20033;-75
2022/01/17 01:36:48;;;;;;;131.93;19.30;;;;;;;;;;5059208;28;20037;-75
2022/01/17 01:39:21;;;;;;;99.40;19.08;;;;;;;;;;5057087;28;20037;-75
2022/01/17 01:41:46;;;;;;;87.07;18.60;;;;;;;;;;5066008;28;20788;-75
2022/01/17 01:44:13;;;;;;;130.70;20.17;;;;;;;;;;5065489;28;20117;-75
2022/01/17 01:46:40;;;;;;;121.90;19.98;;;;;;;;;;5064442;28;20043;-75
2022/01/17 01:49:05;;;;;;;141.68;20.05;;;;;;;;;;5057266;28;20044;-75
2022/01/17 01:51:30;;;;;;;139.13;18.67;;;;;;;;;;5060971;28;20417;-75
2022/01/17 01:53:56;;;;;;;94.95;18.17;;;;;;;;;;5058631;28;20033;-75
2022/01/17 01:56:21;;;;;;;166.23;22.60;;;;;;;;;;5062413;28;20012;-75
2022/01/17 01:58:46;;;;;;;103.50;19.55;;;;;;;;;;5062599;28;20079;-75
2022/01/17 02:01:12;;;;;;;130.82;19.58;;;;;;;;;;5057832;28;20518;-75
2022/01/17 02:03:37;;;;;;;121.40;18.67;;;;;;;;;;5064055;28;20028;-75
2022/01/17 02:06:02;;;;;;;153.80;21.00;;;;;;;;;;5064102;28;20052;-75
2022/01/17 02:08:30;;;;;;;140.25;19.95;;;;;;;;;;5066644;28;20021;-75
2022/01/17 02:10:55;;;;;;;91.07;19.13;;;;;;;;;;5065920;28;20038;-75
2022/01/17 02:13:21;;;;;;;122.75;18.70;;;;;;;;;;5061240;28;20036;-75
2022/01/17 02:15:47;;;;;;;129.48;18.33;;;;;;;;;;5056742;28;20106;-76
2022/01/17 02:18:19;;;;;;;136.60;19.55;;;;;;;;;;5061833;28;20024;-75
2022/01/17 02:20:58;;;;;;;109.50;18.27;;;;;;;;;;5065004;28;20082;-75
2022/01/17 02:23:24;;;;;;;99.63;17.67;;;;;;;;;;5065231;28;20052;-75
2022/01/17 02:25:50;;;;;;;86.00;16.75;;;;;;;;;;5059333;28;20053;-75
2022/01/17 02:28:15;;;;;;;99.65;18.27;;;;;;;;;;5055925;28;20037;-76
2022/01/17 02:30:41;;;;;;;75.97;18.23;;;;;;;;;;5053485;28;20048;-75
2022/01/17 02:33:06;;;;;;;90.38;18.42;;;;;;;;;;5061640;28;20032;-75
2022/01/17 02:35:31;;;;;;;96.05;19.20;;;;;;;;;;5069779;28;20024;-75
2022/01/17 02:37:57;;;;;;;109.45;18.92;;;;;;;;;;5068638;28;20036;-75
2022/01/17 02:40:23;;;;;;;77.65;17.92;;;;;;;;;;5062763;28;20410;-75
2022/01/17 02:43:02;;;;;;;97.50;19.67;;;;;;;;;;5066093;28;20055;-75
2022/01/17 02:46:24;;;;;;;106.28;19.60;;;;;;;;;;5068850;28;20037;-75
2022/01/17 02:48:26;;;;;;;108.93;19.15;;;;;;;;;;5060896;28;20036;-75
2022/01/17 02:50:52;;;;;;;133.73;21.35;;;;;;;;;;5056312;28;20170;-75
2022/01/17 02:53:18;;;;;;;123.65;21.20;;;;;;;;;;5062419;28;20029;-75
2022/01/17 02:55:50;;;;;;;101.65;19.95;;;;;;;;;;5065783;28;20229;-75
2022/01/17 02:58:18;;;;;;;128.57;21.02;;;;;;;;;;5070350;28;20514;-75
2022/01/17 03:00:43;;;;;;;114.82;20.73;;;;;;;;;;5070386;28;20518;-75
2022/01/17 03:03:24;;;;;;;114.45;21.35;;;;;;;;;;5076768;28;20037;-75
2022/01/17 03:05:49;;;;;;;120.70;21.02;;;;;;;;;;5064281;28;20043;-76
2022/01/17 03:08:16;;;;;;;95.93;20.13;;;;;;;;;;5061043;28;20099;-75
2022/01/17 03:10:45;;;;;;;128.18;22.23;;;;;;;;;;5061074;28;20033;-76
2022/01/17 03:13:17;;;;;;;109.47;19.13;;;;;;;;;;5060000;28;20111;-75
2022/01/17 03:15:45;;;;;;;128.00;20.90;;;;;;;;;;5068239;28;20048;-75
2022/01/17 03:18:11;;;;;;;118.70;20.95;;;;;;;;;;5064208;28;20578;-75
2022/01/17 03:20:39;;;;;;;138.50;21.67;;;;;;;;;;5070473;28;20028;-75
2022/01/17 03:23:07;;;;;;;142.57;22.13;;;;;;;;;;5069552;28;20064;-75
2022/01/17 03:25:33;;;;;;;117.00;21.13;;;;;;;;;;5068605;28;20039;-75
2022/01/17 03:27:59;;;;;;;92.97;18.65;;;;;;;;;;5058139;28;20044;-75
2022/01/17 03:30:25;;;;;;;138.18;22.58;;;;;;;;;;5063147;28;20093;-75
2022/01/17 03:32:51;;;;;;;142.77;21.17;;;;;;;;;;5053801;28;20509;-74
2022/01/17 03:35:17;;;;;;;122.13;22.20;;;;;;;;;;5065236;28;20562;-76
2022/01/17 03:37:44;;;;;;;104.20;20.92;;;;;;;;;;5065674;28;20025;-75
2022/01/17 03:40:11;;;;;;;142.63;23.15;;;;;;;;;;5084872;28;20032;-76
2022/01/17 03:42:36;;;;;;;117.85;22.83;;;;;;;;;;5074458;28;20525;-75
2022/01/17 03:45:07;;;;;;;108.20;22.50;;;;;;;;;;5059733;28;20044;-75
2022/01/17 03:47:34;;;;;;;96.60;20.90;;;;;;;;;;5061797;28;20024;-75
2022/01/17 03:49:59;;;;;;;118.80;21.45;;;;;;;;;;5059635;28;20026;-75
2022/01/17 03:52:24;;;;;;;121.82;21.10;;;;;;;;;;5062556;28;20036;-75
2022/01/17 03:54:50;;;;;;;108.80;20.85;;;;;;;;;;5062906;28;20079;-75
2022/01/17 03:57:15;;;;;;;104.85;20.23;;;;;;;;;;5061231;28;20885;-74
2022/01/17 03:59:40;;;;;;;97.07;20.20;;;;;;;;;;5064239;28;20024;-75
2022/01/17 04:02:06;;;;;;;101.30;20.45;;;;;;;;;;5061299;28;20064;-75
2022/01/17 04:04:31;;;;;;;106.97;23.13;;;;;;;;;;5059969;28;20135;-75
2022/01/17 04:06:56;;;;;;;99.20;20.27;;;;;;;;;;5060418;28;20032;-75
2022/01/17 04:09:22;;;;;;;96.15;20.20;;;;;;;;;;5060846;28;20056;-75
2022/01/17 04:11:47;;;;;;;74.80;20.13;;;;;;;;;;5061354;28;20039;-75
2022/01/17 04:14:13;;;;;;;109.05;21.65;;;;;;;;;;5062784;28;20020;-75
2022/01/17 04:16:38;;;;;;;94.97;19.50;;;;;;;;;;5066052;28;20521;-75
2022/01/17 04:19:04;;;;;;;120.47;19.98;;;;;;;;;;5065982;28;20517;-75
2022/01/17 04:21:35;;;;;;;91.03;21.17;;;;;;;;;;5051834;28;20078;-75
2022/01/17 04:24:00;;;;;;;76.72;18.83;;;;;;;;;;5066191;28;20048;-75
2022/01/17 04:26:26;;;;;;;86.72;19.92;;;;;;;;;;5066885;28;20036;-75
2022/01/17 04:28:51;;;;;;;77.10;20.00;;;;;;;;;;5067972;28;20028;-75
2022/01/17 04:31:16;;;;;;;91.15;22.13;;;;;;;;;;5055029;28;20094;-75
2022/01/17 04:33:42;;;;;;;90.75;20.70;;;;;;;;;;5057191;28;20044;-75
2022/01/17 04:36:10;;;;;;;103.68;22.00;;;;;;;;;;5061016;28;20178;-75
2022/01/17 04:38:37;;;;;;;88.53;20.25;;;;;;;;;;5066117;28;20032;-75
2022/01/17 04:41:04;;;;;;;84.40;20.58;;;;;;;;;;5066232;28;20502;-75
2022/01/17 04:46:02;;;;;;;82.25;20.92;;;;;;;;;;5060287;28;20032;-75
2022/01/17 04:48:27;;;;;;;74.55;19.08;;;;;;;;;;5060200;28;20462;-76
2022/01/17 04:50:52;;;;;;;74.53;20.42;;;;;;;;;;5066162;28;20029;-75
2022/01/17 04:53:20;;;;;;;75.32;20.33;;;;;;;;;;5063412;28;20570;-75
2022/01/17 04:55:46;;;;;;;63.55;18.95;;;;;;;;;;5058557;28;20045;-75
2022/01/17 04:58:12;;;;;;;78.88;18.08;;;;;;;;;;5060167;28;20927;-75
2022/01/17 05:00:39;;;;;;;78.63;19.10;;;;;;;;;;5058128;28;20489;-75
2022/01/17 05:03:05;;;;;;;84.18;20.35;;;;;;;;;;5057419;28;20060;-75
2022/01/17 05:05:30;;;;;;;92.50;21.80;;;;;;;;;;5061438;28;20028;-75
2022/01/17 05:07:55;;;;;;;84.82;19.70;;;;;;;;;;5064638;28;20032;-75
2022/01/17 05:10:22;;;;;;;73.90;19.80;;;;;;;;;;5063521;28;20053;-76
2022/01/17 05:12:47;;;;;;;99.55;24.23;;;;;;;;;;5058382;28;20049;-75
2022/01/17 05:15:24;;;;;;;83.25;20.25;;;;;;;;;;5062693;28;20038;-75
2022/01/17 05:20:42;;;;;;;96.18;20.98;;;;;;;;;;5045244;28;20036;-75
2022/01/17 05:23:09;;;;;;;88.70;19.85;;;;;;;;;;5059056;28;20036;-75
2022/01/17 05:25:35;;;;;;;70.68;18.73;;;;;;;;;;5059361;28;20477;-75
2022/01/17 05:28:00;;;;;;;85.13;21.95;;;;;;;;;;5059934;28;20036;-75
2022/01/17 05:30:26;;;;;;;88.00;21.13;;;;;;;;;;5057535;28;20410;-75
2022/01/17 05:32:53;;;;;;;87.90;22.02;;;;;;;;;;5065635;28;20040;-75
2022/01/17 05:35:19;;;;;;;88.47;23.38;;;;;;;;;;5067165;28;20075;-75
2022/01/17 05:37:46;;;;;;;89.95;22.60;;;;;;;;;;5060513;28;20033;-75
2022/01/17 05:40:14;;;;;;;100.07;22.52;;;;;;;;;;5063126;28;20044;-75
2022/01/17 05:42:40;;;;;;;80.90;23.23;;;;;;;;;;5067244;28;20052;-75
2022/01/17 05:45:07;;;;;;;86.45;20.88;;;;;;;;;;5063929;28;20062;-74
2022/01/17 05:47:32;;;;;;;85.65;21.73;;;;;;;;;;5057676;28;20089;-75
2022/01/17 05:50:01;;;;;;;93.43;21.85;;;;;;;;;;5058719;28;20710;-75
2022/01/17 05:52:26;;;;;;;61.67;18.67;;;;;;;;;;5056375;28;20036;-75
2022/01/17 05:54:52;;;;;;;83.80;21.60;;;;;;;;;;5061315;28;20564;-75
2022/01/17 05:57:18;;;;;;;74.97;20.90;;;;;;;;;;5061414;28;20036;-75
2022/01/17 05:59:43;;;;;;;73.85;18.48;;;;;;;;;;5064405;28;20032;-75
2022/01/17 06:02:09;;;;;;;69.78;21.27;;;;;;;;;;5060499;28;20037;-75
2022/01/17 06:04:35;;;;;;;78.50;21.70;;;;;;;;;;5066554;28;20036;-75
2022/01/17 06:07:00;;;;;;;75.40;22.10;;;;;;;;;;5067158;28;20085;-76
2022/01/17 06:09:25;;;;;;;87.72;23.35;;;;;;;;;;5057950;28;20051;-76
2022/01/17 06:11:51;;;;;;;72.35;22.23;;;;;;;;;;5059845;28;20078;-75
2022/01/17 06:14:18;;;;;;;66.15;19.80;;;;;;;;;;5061044;28;20417;-76
2022/01/17 06:16:45;;;;;;;66.32;20.52;;;;;;;;;;5053784;28;20060;-76
2022/01/17 06:19:11;;;;;;;68.50;18.92;;;;;;;;;;5063662;28;20060;-75
2022/01/17 06:21:36;;;;;;;70.18;22.25;;;;;;;;;;5056501;28;20052;-75
2022/01/17 06:24:04;;;;;;;69.20;19.55;;;;;;;;;;5063225;28;20090;-75
2022/01/17 06:26:30;;;;;;;79.40;21.98;;;;;;;;;;5061917;28;20071;-75
2022/01/17 06:28:55;;;;;;;71.78;21.48;;;;;;;;;;5062926;28;20075;-75
2022/01/17 06:31:21;;;;;;;66.30;21.10;;;;;;;;;;5056721;28;20242;-75
2022/01/17 06:33:46;;;;;;;69.65;18.98;;;;;;;;;;5060791;28;20464;-75
2022/01/17 06:36:12;;;;;;;70.03;19.27;;;;;;;;;;5066956;28;20505;-75
2022/01/17 06:38:37;;;;;;;71.15;20.00;;;;;;;;;;5058165;28;20739;-75
2022/01/17 06:41:02;;;;;;;61.80;19.50;;;;;;;;;;5048239;28;20035;-75
2022/01/17 06:43:28;;;;;;;72.15;20.73;;;;;;;;;;5059032;28;20056;-75
2022/01/17 06:45:53;;;;;;;63.40;19.15;;;;;;;;;;5066124;28;20540;-75
2022/01/17 06:48:19;;;;;;;63.38;19.67;;;;;;;;;;5064839;28;20119;-75
2022/01/17 06:50:44;;;;;;;65.10;17.73;;;;;;;;;;5057372;28;20060;-75
2022/01/17 06:53:10;;;;;;;64.80;20.00;;;;;;;;;;5058890;28;20048;-74
2022/01/17 06:55:35;;;;;;;59.65;20.48;;;;;;;;;;5058565;28;20060;-74
2022/01/17 06:58:00;;;;;;;67.80;20.55;;;;;;;;;;5065839;28;20041;-74
2022/01/17 07:00:26;;;;;;;67.20;19.23;;;;;;;;;;5055489;28;20044;-75
2022/01/17 07:02:52;;;;;;;57.25;18.65;;;;;;;;;;5056116;28;20046;-75
2022/01/17 07:05:17;;;;;;;59.80;20.25;;;;;;;;;;5061296;28;20032;-74
2022/01/17 07:07:43;;;;;;;63.92;21.13;;;;;;;;;;5063557;28;20664;-75
2022/01/17 07:10:09;;;;;;;65.25;21.02;;;;;;;;;;5065672;28;20032;-73
2022/01/17 07:12:36;;;;;;;66.60;20.00;;;;;;;;;;5066775;28;20068;-74
2022/01/17 07:15:03;;;;;;;71.93;22.15;;;;;;;;;;5065512;28;20091;-74
2022/01/17 07:17:28;;;;;;;60.42;20.65;;;;;;;;;;5059658;28;20028;-73
2022/01/17 07:19:53;;;;;;;62.22;19.40;;;;;;;;;;5059028;28;20051;-73
2022/01/17 07:22:18;;;;;;;59.83;19.25;;;;;;;;;;5060294;28;20449;-73
2022/01/17 07:24:47;;;;;;;69.55;19.77;;;;;;;;;;5064705;28;20041;-73
2022/01/17 07:27:13;;;;;;;57.40;19.75;;;;;;;;;;5066539;28;20114;-73
2022/01/17 07:29:40;;;;;;;66.80;21.35;;;;;;;;;;5069247;28;20066;-74
2022/01/17 07:32:06;;;;;;;70.95;22.20;;;;;;;;;;5066635;28;20066;-74
2022/01/17 07:34:32;;;;;;;59.22;19.80;;;;;;;;;;5063365;28;20118;-74
2022/01/17 07:36:59;;;;;;;56.30;19.88;;;;;;;;;;5062942;28;20524;-73
2022/01/17 07:39:25;;;;;;;61.97;19.40;;;;;;;;;;5062672;28;20040;-73
2022/01/17 07:41:51;;;;;;;64.03;19.35;;;;;;;;;;5062525;28;20044;-73
2022/01/17 07:44:20;;;;;;;66.30;18.60;;;;;;;;;;5064952;28;20020;-73
2022/01/17 07:47:01;;;;;;;63.47;20.63;;;;;;;;;;5065012;28;20043;-74
2022/01/17 07:49:27;;;;;;;55.28;18.25;;;;;;;;;;5083258;28;20059;-74
2022/01/17 07:52:03;;;;;;;56.88;19.13;;;;;;;;;;5081158;28;20040;-73
2022/01/17 07:54:31;;;;;;;67.13;20.42;;;;;;;;;;5079652;28;20575;-74
2022/01/17 07:57:01;;;;;;;70.40;21.23;;;;;;;;;;5077555;28;20041;-75
2022/01/17 07:59:27;;;;;;;65.93;20.05;;;;;;;;;;5084938;28;20089;-77
2022/01/17 08:01:53;;;;;;;63.22;18.80;;;;;;;;;;5086346;28;20052;-76
2022/01/17 08:04:18;;;;;;;65.68;18.38;;;;;;;;;;5081129;28;20726;-76
2022/01/17 08:06:46;;;;;;;71.65;21.08;;;;;;;;;;5079435;28;20522;-76
2022/01/17 08:09:37;;;;;;;66.93;25.05;;;;;;;;;;5080235;28;20040;-76
2022/01/17 08:12:05;;;;;;;58.10;18.83;;;;;;;;;;5077611;28;20075;-76
2022/01/17 08:14:31;;;;;;;76.78;20.05;;;;;;;;;;5080409;28;20085;-76
2022/01/17 08:16:57;;;;;;;60.13;18.42;;;;;;;;;;5086899;28;20021;-75
2022/01/17 08:19:24;;;;;;;63.50;20.75;;;;;;;;;;5087538;28;20039;-77
2022/01/17 08:21:51;;;;;;;68.35;21.23;;;;;;;;;;5083443;28;20036;-79
2022/01/17 08:24:20;;;;;;;73.75;21.45;;;;;;;;;;5082586;28;20442;-78
2022/01/17 08:26:46;;;;;;;74.15;19.95;;;;;;;;;;5078035;28;20043;-76
2022/01/17 08:29:12;;;;;;;70.43;20.35;;;;;;;;;;5082285;28;20058;-75
2022/01/17 08:31:38;;;;;;;76.85;21.25;;;;;;;;;;5086906;28;20043;-74
2022/01/17 08:34:03;;;;;;;62.05;20.05;;;;;;;;;;5086656;28;20036;-74
2022/01/17 08:36:29;;;;;;;69.88;20.70;;;;;;;;;;5087385;28;20097;-74
2022/01/17 08:38:54;;;;;;;64.47;18.10;;;;;;;;;;5083006;28;20395;-74
2022/01/17 08:41:20;;;;;;;71.57;20.73;;;;;;;;;;5082954;28;20088;-74
2022/01/17 08:43:46;;;;;;;74.35;23.02;;;;;;;;;;5080941;28;20156;-75
2022/01/17 08:46:12;;;;;;;74.65;21.20;;;;;;;;;;5080205;28;20070;-76
2022/01/17 08:48:39;;;;;;;80.05;22.25;;;;;;;;;;5077057;28;20048;-78
2022/01/17 08:51:04;;;;;;;63.92;18.02;;;;;;;;;;5076697;28;20090;-77
2022/01/17 08:53:30;;;;;;;77.78;21.70;;;;;;;;;;5080241;28;20024;-75
2022/01/17 08:55:55;;;;;;;77.80;23.42;;;;;;;;;;5057747;28;20497;-73
2022/01/17 08:58:20;;;;;;;76.38;21.23;;;;;;;;;;5055541;28;20961;-73
2022/01/17 09:00:46;;;;;;;82.97;23.58;;;;;;;;;;5057496;28;20247;-78
2022/01/17 09:03:11;;;;;;;79.20;22.92;;;;;;;;;;5053084;28;20051;-77
2022/01/17 09:05:37;;;;;;;73.30;24.02;;;;;;;;;;5055662;28;20792;-75
2022/01/17 09:08:04;;;;;;;72.15;21.67;;;;;;;;;;5059624;28;20536;-74
2022/01/17 09:10:30;;;;;;;87.38;23.08;;;;;;;;;;5061720;28;20139;-75
2022/01/17 09:12:56;;;;;;;74.97;23.27;;;;;;;;;;5059887;28;20116;-75
2022/01/17 09:15:22;;;;;;;78.90;22.85;;;;;;;;;;5054436;28;20056;-78
2022/01/17 09:17:48;;;;;;;90.45;25.25;;;;;;;;;;5052293;28;20093;-78
2022/01/17 09:20:13;;;;;;;87.05;24.60;;;;;;;;;;5058875;28;20851;-77
2022/01/17 09:22:38;;;;;;;75.07;24.33;;;;;;;;;;5059606;28;20044;-77
2022/01/17 09:25:06;;;;;;;81.10;24.58;;;;;;;;;;5060723;28;20048;-79
2022/01/17 09:27:33;;;;;;;54.80;17.42;;;;;;;;;;5063997;28;20509;-77
2022/01/17 09:29:58;;;;;;;90.40;25.30;;;;;;;;;;5052922;28;20096;-78
2022/01/17 09:32:23;;;;;;;82.35;23.25;;;;;;;;;;5054849;28;20069;-79
2022/01/17 09:34:49;;;;;;;76.13;22.35;;;;;;;;;;5060649;28;20035;-78
2022/01/17 09:37:14;;;;;;;85.70;25.23;;;;;;;;;;5064508;28;20058;-78
2022/01/17 09:39:40;;;;;;;85.18;25.02;;;;;;;;;;5060836;28;20401;-76
2022/01/17 09:42:06;;;;;;;99.43;23.40;;;;;;;;;;5057322;28;20135;-77
2022/01/17 09:44:33;;;;;;;86.53;25.38;;;;;;;;;;5056850;28;20044;-77
2022/01/17 09:46:59;;;;;;;76.85;23.88;;;;;;;;;;5058452;28;20580;-77
2022/01/17 09:49:33;;;;;;;86.88;22.63;;;;;;;;;;5060272;28;20036;-76
2022/01/17 09:52:07;;;;;;;116.35;26.05;;;;;;;;;;5055635;28;20405;-76
2022/01/17 09:54:39;;;;;;;93.53;23.38;;;;;;;;;;5059319;28;20181;-77
2022/01/17 09:57:06;;;;;;;76.22;22.23;;;;;;;;;;5058172;28;20056;-76
2022/01/17 09:59:34;;;;;;;69.97;22.67;;;;;;;;;;5064747;28;20041;-75
2022/01/17 10:02:00;;;;;;;64.78;19.35;;;;;;;;;;5065302;28;20291;-79
2022/01/17 10:04:27;;;;;;;78.75;21.58;;;;;;;;;;5063219;28;20752;-79
2022/01/17 10:06:54;;;;;;;73.13;19.90;;;;;;;;;;5058784;28;20510;-75
2022/01/17 10:09:24;;;;;;;69.85;20.02;;;;;;;;;;5056408;28;20040;-76
2022/01/17 10:12:11;;;;;;;69.53;20.65;;;;;;;;;;5065014;28;20059;-77
2022/01/17 10:14:44;;;;;;;71.85;21.58;;;;;;;;;;5050339;28;20047;-72
2022/01/17 10:17:12;;;;;;;69.10;19.42;;;;;;;;;;5064924;28;20036;-76
2022/01/17 10:19:39;;;;;;;74.78;22.20;;;;;;;;;;5076459;28;20024;-73
2022/01/17 10:22:12;;;;;;;72.80;21.88;;;;;;;;;;5064336;28;20086;-75
2022/01/17 10:24:54;;;;;;;67.43;20.02;;;;;;;;;;5057745;28;20032;-74
2022/01/17 10:35:27;;;;;;;49.25;17.95;;;;;;;;;;5064820;28;20074;-77
2022/01/17 10:38:00;;;;;;;60.97;19.23;;;;;;;;;;5061857;28;20020;-79
2022/01/17 10:40:31;;;;;;;66.68;20.08;;;;;;;;;;5064501;28;20017;-74
2022/01/17 10:42:58;;;;;;;66.50;20.13;;;;;;;;;;5064134;28;20047;-80
2022/01/17 10:45:33;;;;;;;53.40;18.33;;;;;;;;;;5056159;28;20044;-77
2022/01/17 10:48:00;;;;;;;58.35;18.80;;;;;;;;;;5061854;28;20044;-79
2022/01/17 10:50:28;;;;;;;55.40;18.38;;;;;;;;;;5065947;28;20123;-81
2022/01/17 10:52:59;;;;;;;63.42;18.58;;;;;;;;;;5063796;28;20032;-78
2022/01/17 10:55:26;;;;;;;68.85;19.80;;;;;;;;;;5086587;28;20107;-77
2022/01/17 10:57:55;;;;;;;72.78;20.75;;;;;;;;;;5087099;28;20047;-75
2022/01/17 11:00:32;;;;;;;68.35;21.65;;;;;;;;;;5068989;28;20428;-80
2022/01/17 11:03:00;;;;;;;62.28;18.42;;;;;;;;;;5069888;28;20051;-78
2022/01/17 11:05:27;;;;;;;60.03;17.67;;;;;;;;;;5059574;28;20126;-78
2022/01/17 11:07:55;;;;;;;58.42;17.40;;;;;;;;;;5060321;28;20023;-79
2022/01/17 11:10:24;;;;;;;71.00;20.63;;;;;;;;;;5062525;28;20028;-81
2022/01/17 11:12:53;;;;;;;55.92;18.83;;;;;;;;;;5061523;28;21036;-80
2022/01/17 11:15:21;;;;;;;69.60;20.42;;;;;;;;;;5063626;28;20484;-79
2022/01/17 11:17:56;;;;;;;69.68;19.08;;;;;;;;;;5057590;28;20120;-79
2022/01/17 11:20:27;;;;;;;69.10;20.60;;;;;;;;;;5065396;28;20572;-79
2022/01/17 11:22:56;;;;;;;61.80;18.38;;;;;;;;;;5063878;28;20021;-79
2022/01/17 11:25:31;;;;;;;60.15;19.13;;;;;;;;;;5069630;28;20028;-80
2022/01/17 11:27:58;;;;;;;63.20;19.00;;;;;;;;;;5065304;28;20041;-80
2022/01/17 11:30:24;;;;;;;60.90;19.00;;;;;;;;;;5063706;28;20037;-71
2022/01/17 11:32:51;;;;;;;53.03;17.88;;;;;;;;;;5064000;28;20036;-79
2022/01/17 11:35:18;;;;;;;58.75;19.38;;;;;;;;;;5061138;28;20043;-79
2022/01/17 11:37:46;;;;;;;58.22;19.02;;;;;;;;;;5060243;28;20410;-78
2022/01/17 11:40:14;;;;;;;54.33;14.80;;;;;;;;;;5069460;28;20456;-79
2022/01/17 11:42:41;;;;;;;58.25;18.65;;;;;;;;;;5069458;28;20032;-78
2022/01/17 11:45:22;;;;;;;51.85;17.63;;;;;;;;;;5062520;28;20029;-78
2022/01/17 11:47:57;;;;;;;50.35;16.33;;;;;;;;;;5061605;28;20028;-78
2022/01/17 11:50:36;;;;;;;52.30;18.45;;;;;;;;;;5061583;28;20048;-78
2022/01/17 11:53:11;;;;;;;50.30;17.98;;;;;;;;;;5060297;28;20462;-80
2022/01/17 11:55:42;;;;;;;55.47;19.42;;;;;;;;;;5068395;28;20027;-81
2022/01/17 11:58:26;;;;;;;50.65;18.48;;;;;;;;;;5067165;28;20068;-79
2022/01/17 12:00:59;;;;;;;61.25;21.25;;;;;;;;;;5066793;28;20186;-82
2022/01/17 12:03:28;;;;;;;57.08;20.42;;;;;;;;;;5067724;28;20060;-79
2022/01/17 12:05:56;;;;;;;51.17;17.80;;;;;;;;;;5065855;28;20048;-78
2022/01/17 12:08:24;;;;;;;55.55;19.00;;;;;;;;;;5063223;28;20056;-78
2022/01/17 12:10:52;;;;;;;48.13;17.52;;;;;;;;;;5059599;28;20028;-76
2022/01/17 12:13:19;;;;;;;51.20;18.65;;;;;;;;;;5063952;28;20060;-75
2022/01/17 12:16:09;;;;;;;52.75;17.63;;;;;;;;;;5063334;28;20040;-77
2022/01/17 12:18:40;;;;;;;58.53;18.27;;;;;;;;;;5067747;28;20044;-76
2022/01/17 12:21:19;;;;;;;64.47;20.77;;;;;;;;;;5062188;28;20165;-76
2022/01/17 12:23:44;;;;;;;44.20;16.08;;;;;;;;;;5063259;28;20438;-76
2022/01/17 12:26:32;;;;;;;47.15;17.35;;;;;;;;;;5060045;28;20039;-79
2022/01/17 12:28:59;;;;;;;50.85;19.98;;;;;;;;;;5049629;28;20085;-76
2022/01/17 12:31:38;;;;;;;55.03;20.67;;;;;;;;;;5057834;28;20021;-84
2022/01/17 12:34:25;;;;;;;52.95;19.95;;;;;;;;;;5057427;28;20040;-80
2022/01/17 12:36:53;;;;;;;57.30;19.70;;;;;;;;;;5077142;28;20081;-77
2022/01/17 12:39:21;;;;;;;54.00;18.25;;;;;;;;;;5077090;28;20036;-77
2022/01/17 12:41:49;;;;;;;48.83;18.35;;;;;;;;;;5074979;28;20520;-82
2022/01/17 12:44:22;;;;;;;52.97;20.00;;;;;;;;;;5073571;28;20047;-74
2022/01/17 12:46:50;;;;;;;56.38;17.33;;;;;;;;;;5084643;28;20028;-74
2022/01/17 12:49:17;;;;;;;54.75;19.63;;;;;;;;;;5073286;28;20028;-75
2022/01/17 12:51:49;;;;;;;54.97;20.13;;;;;;;;;;5078729;28;20085;-78
2022/01/17 12:54:18;;;;;;;45.15;18.55;;;;;;;;;;5080063;28;20055;-76
2022/01/17 12:56:46;;;;;;;56.88;18.88;;;;;;;;;;5082371;28;20043;-78
2022/01/17 12:59:12;;;;;;;50.20;19.10;;;;;;;;;;5073170;28;20163;-76
2022/01/17 13:01:44;;;;;;;45.30;15.85;;;;;;;;;;5087266;28;20448;-84
2022/01/17 13:04:11;;;;;;;44.35;15.75;;;;;;;;;;5079283;28;20798;-77
2022/01/17 13:06:37;;;;;;;45.88;15.80;;;;;;;;;;5072801;28;20043;-79
2022/01/17 13:09:09;;;;;;;47.67;15.52;;;;;;;;;;5077863;28;20036;-78
2022/01/17 13:11:38;;;;;;;40.38;14.18;;;;;;;;;;5081672;28;20094;-77
2022/01/17 13:14:03;;;;;;;37.75;14.70;;;;;;;;;;5084364;28;20039;-82
2022/01/17 13:16:36;;;;;;;41.20;14.30;;;;;;;;;;5084051;28;20020;-79
2022/01/17 13:19:04;;;;;;;37.30;13.88;;;;;;;;;;5062305;28;20622;-78
2022/01/17 13:21:31;;;;;;;39.03;15.18;;;;;;;;;;5059515;28;20048;-75
2022/01/17 13:24:01;;;;;;;38.42;15.93;;;;;;;;;;5059381;28;20577;-81
2022/01/17 13:26:31;;;;;;;38.38;15.13;;;;;;;;;;5045005;28;20044;-79
2022/01/17 13:28:57;;;;;;;39.95;15.48;;;;;;;;;;5050142;28;20449;-79
2022/01/17 13:31:25;;;;;;;43.33;14.52;;;;;;;;;;5064780;28;21118;-86
2022/01/17 13:33:51;;;;;;;37.90;14.25;;;;;;;;;;5058424;28;20044;-84
2022/01/17 13:36:36;;;;;;;42.90;17.30;;;;;;;;;;5058628;28;20036;-84
2022/01/17 13:39:09;;;;;;;43.13;15.63;;;;;;;;;;5053974;28;20407;-84
2022/01/17 13:41:43;;;;;;;34.03;12.50;;;;;;;;;;5063871;28;20051;-84
2022/01/17 13:44:09;;;;;;;35.45;13.20;;;;;;;;;;5059842;28;20045;-75
2022/01/17 13:46:38;;;;;;;37.42;13.68;;;;;;;;;;5048574;28;20028;-78
2022/01/17 13:49:07;;;;;;;36.47;12.95;;;;;;;;;;5066737;28;20106;-80
2022/01/17 13:51:34;;;;;;;37.60;15.18;;;;;;;;;;5050815;28;20090;-80
2022/01/17 13:53:59;;;;;;;32.63;11.25;;;;;;;;;;5053500;28;20047;-80
2022/01/17 13:56:32;;;;;;;35.30;13.02;;;;;;;;;;5053589;28;20432;-82
2022/01/17 13:58:57;;;;;;;36.05;14.90;;;;;;;;;;5052568;28;20036;-83
2022/01/17 14:01:23;;;;;;;34.65;13.32;;;;;;;;;;5049737;28;20036;-79
2022/01/17 14:03:48;;;;;;;29.70;10.35;;;;;;;;;;5055432;28;20044;-83
2022/01/17 14:06:15;;;;;;;32.20;11.65;;;;;;;;;;5059962;28;20048;-74
2022/01/17 14:08:43;;;;;;;32.00;13.30;;;;;;;;;;5063786;28;20565;-78
2022/01/17 14:11:12;;;;;;;36.40;13.52;;;;;;;;;;5062721;28;20036;-84
2022/01/17 14:13:44;;;;;;;35.00;13.63;;;;;;;;;;5061714;28;20119;-81
2022/01/17 14:16:31;;;;;;;33.75;13.40;;;;;;;;;;5056074;28;20032;-81
2022/01/17 14:19:11;;;;;;;38.28;14.13;;;;;;;;;;5060349;28;20537;-76
2022/01/17 14:21:39;;;;;;;35.72;12.95;;;;;;;;;;5051183;28;20546;-73
2022/01/17 14:24:06;;;;;;;36.95;13.93;;;;;;;;;;5063140;28;20040;-79
2022/01/17 14:26:32;;;;;;;33.13;15.00;;;;;;;;;;5059256;28;20037;-75
2022/01/17 14:28:57;;;;;;;38.88;14.63;;;;;;;;;;5054892;28;20052;-83
2022/01/17 14:31:23;;;;;;;34.47;13.55;;;;;;;;;;5058588;28;20032;-85
2022/01/17 14:33:54;;;;;;;35.80;12.98;;;;;;;;;;5057060;28;20136;-78
2022/01/17 14:36:19;;;;;;;29.25;13.27;;;;;;;;;;5062218;28;20072;-84
2022/01/17 14:38:51;;;;;;;38.22;13.75;;;;;;;;;;5060032;28;20072;-79
2022/01/17 14:41:40;;;;;;;29.48;12.55;;;;;;;;;;5058616;28;20616;-81
2022/01/17 14:44:08;;;;;;;32.03;12.02;;;;;;;;;;5059730;28;20031;-85